Portada
METAR-TAF:

METAR-TAF

Aeropuertos :

Amán, Jordania

Aeropuerto Civil de Amán

latitud: 31-59N, longitud: 035-59E, altitud: 767 m

Observación

El informe se hizo hace 18 minutos, a las 15:00 UTC
Viento 3 kt del este
Temperatura 16°C
Humedad 20%
Presión 1025 hPa
Visibilidad: 5000 m
calima

METAR: OJAM 111500Z 10003KT 5000 HZ NSC 16/M07 Q1025 NOSIG

Hora: 17:18 (15:18 UTC)

Pronóstico

El informe se hizo hace 4 horas y 18 minutos, a las 11:00 UTC
Pronóstico válido del 11 a las 12 UTC al 12 a las 18 UTC
Viento 6 kt del este-sureste
Visibilidad: 5000 m
calima
Temporalmente
del 12 a las 02 UTC al 12 a las 06 UTC
Viento 2 kt con dirección variable
Visibilidad: 2500 m
humo

TAF: OJAM 111100Z 1112/1218 12006KT 5000 HZ NSC TEMPO 1202/1206 VRB02KT 2500 FU

Observaciones y pronósticos meteorológicos de más de 4000 aeropuertos (mensajes METAR y TAF).

Los puntos amarillos y rojos representan las estaciones disponibles.

Ponga el ratón en el punto deseado para ver el nombre de la estación.

Haga clic para ver las observaciones y los pronósticos meteorológicos.

Para cambiar el mapa : haga clic en los botones verdes con una cruz de color negro para hacer un zoom, en el botón verde con un guión para alejar o en las flechas verdes para mapas adyacentes.


METAR-TAF: